createdAt,value
2022-10-14T00:00:00.403Z,12.3571
2022-10-14T00:01:00.428Z,11.8571
2022-10-14T00:02:00.650Z,12.5
2022-10-14T00:03:00.501Z,12.3571
2022-10-14T00:04:00.530Z,13
2022-10-14T00:05:00.562Z,12.5
2022-10-14T00:06:00.613Z,12
2022-10-14T00:07:00.622Z,11.5
2022-10-14T00:08:00.659Z,12.7143
2022-10-14T00:09:00.701Z,12.8571
2022-10-14T00:10:00.744Z,11.1429
2022-10-14T00:11:00.780Z,11.4286
2022-10-14T00:12:00.785Z,11.3571
2022-10-14T00:13:00.825Z,12.6429
2022-10-14T00:14:00.867Z,12.1429
2022-10-14T00:15:00.898Z,12.7143
2022-10-14T00:16:00.947Z,12.4286
2022-10-14T00:17:00.968Z,13.6429
2022-10-14T00:18:00.994Z,13.5
2022-10-14T00:19:01.032Z,14.3571
2022-10-14T00:20:01.065Z,13.9286
2022-10-14T00:21:01.120Z,15.2143
2022-10-14T00:22:01.151Z,15.4286
2022-10-14T00:23:01.171Z,14.9286
2022-10-14T00:24:01.205Z,15.1429
2022-10-14T00:25:01.237Z,14
2022-10-14T00:26:01.275Z,14.5
2022-10-14T00:27:01.305Z,15
2022-10-14T00:28:01.337Z,15.2143
2022-10-14T00:29:01.370Z,15.3571
2022-10-14T00:30:01.398Z,15.1429
2022-10-14T00:31:01.431Z,14.9286
2022-10-14T00:32:01.478Z,14.3571
2022-10-14T00:33:01.491Z,15.6429
2022-10-14T00:34:01.529Z,14
2022-10-14T00:35:01.556Z,15.1429
2022-10-14T00:36:01.605Z,15.7143
2022-10-14T00:37:01.617Z,15
2022-10-14T00:38:01.675Z,15.4286
2022-10-14T00:39:01.697Z,15.8571
2022-10-14T00:40:01.725Z,16.3571
2022-10-14T00:41:01.756Z,15.5
2022-10-14T00:42:01.792Z,15.7143
2022-10-14T00:43:01.844Z,15.8571
2022-10-14T00:44:01.856Z,15.1429
2022-10-14T00:45:01.885Z,16.1429
2022-10-14T00:46:01.925Z,15.5
2022-10-14T00:47:01.950Z,14.8571
2022-10-14T00:48:02.000Z,15.1429
2022-10-14T00:49:02.013Z,15
2022-10-14T00:50:02.046Z,15.5
2022-10-14T00:51:02.081Z,16
2022-10-14T00:52:02.114Z,15.8571
2022-10-14T00:53:02.171Z,16.8571
2022-10-14T00:54:02.185Z,16.1429
2022-10-14T00:55:02.221Z,15.9286
2022-10-14T00:56:02.255Z,16.2143
2022-10-14T00:57:02.289Z,15.4286
2022-10-14T00:58:02.341Z,15.8571
2022-10-14T00:59:02.350Z,15.5
2022-10-14T01:00:02.382Z,15
2022-10-14T01:01:02.476Z,15.5
2022-10-14T01:02:02.442Z,14.6429
2022-10-14T01:03:02.496Z,14.7143
2022-10-14T01:04:02.507Z,15.4286
2022-10-14T01:05:02.539Z,15.2143
2022-10-14T01:06:02.574Z,15.5
2022-10-14T01:07:02.609Z,14.6429
2022-10-14T01:08:02.663Z,15.1429
2022-10-14T01:09:02.672Z,15.4286
2022-10-14T01:10:02.698Z,15.6429
2022-10-14T01:11:02.734Z,16.6429
2022-10-14T01:12:23.503Z,15.9286
2022-10-14T01:13:02.791Z,16.9286
2022-10-14T01:14:02.826Z,15.5
2022-10-14T01:15:02.882Z,16.1429
2022-10-14T01:16:02.886Z,15.9286
2022-10-14T01:17:02.940Z,16.4286
2022-10-14T01:18:02.943Z,15.9286
2022-10-14T01:19:02.975Z,15.1429
2022-10-14T01:20:03.028Z,15.4286
2022-10-14T01:21:03.042Z,14.7143
2022-10-14T01:22:03.073Z,15.3571
2022-10-14T01:23:03.102Z,15.1429
2022-10-14T01:24:03.137Z,14.9286
2022-10-14T01:25:03.183Z,15.2143
2022-10-14T01:26:03.222Z,15.5
2022-10-14T01:27:03.227Z,16.3571
2022-10-14T01:28:03.253Z,15.5
2022-10-14T01:29:03.298Z,15.7143
2022-10-14T01:30:03.332Z,14.7143
2022-10-14T01:31:03.393Z,14.6429
2022-10-14T01:32:03.400Z,16.4286
2022-10-14T01:33:03.429Z,15.2143
2022-10-14T01:34:03.458Z,14.8571
2022-10-14T01:35:03.490Z,16.2143
2022-10-14T01:36:03.541Z,15.7143
2022-10-14T01:37:03.550Z,14.2143
2022-10-14T01:38:03.582Z,16.4286
2022-10-14T01:39:03.612Z,16.4286
2022-10-14T01:40:03.663Z,15
2022-10-14T01:41:03.674Z,16.1429
2022-10-14T01:42:03.701Z,15.5
2022-10-14T01:43:03.731Z,16.1429
2022-10-14T01:44:03.782Z,15.7143
2022-10-14T01:45:03.796Z,16.2143
2022-10-14T01:46:03.831Z,16.2143
2022-10-14T01:47:03.877Z,15.8571
2022-10-14T01:48:03.892Z,15.6429
2022-10-14T01:49:03.918Z,15.1429
2022-10-14T01:50:03.974Z,16.1429
2022-10-14T01:51:03.980Z,16.1429
2022-10-14T01:52:04.015Z,15.7143
2022-10-14T01:53:04.054Z,16.2143
2022-10-14T01:54:04.113Z,16.7143
2022-10-14T01:55:04.118Z,16.6429
2022-10-14T01:56:04.151Z,16.8571
2022-10-14T01:57:04.182Z,16
2022-10-14T01:58:04.215Z,15.6429
2022-10-14T01:59:04.262Z,16.7143
2022-10-14T02:00:04.272Z,16
2022-10-14T02:01:04.306Z,15.5
2022-10-14T02:02:04.439Z,15.5
2022-10-14T02:03:04.369Z,15.9286
2022-10-14T02:04:04.405Z,17.9286
2022-10-14T02:05:04.464Z,15.7143
2022-10-14T02:06:04.477Z,15.8571
2022-10-14T02:07:04.515Z,13.6429
2022-10-14T02:08:04.558Z,13.9286
2022-10-14T02:09:04.571Z,13.3571
2022-10-14T02:10:04.632Z,13.1429
2022-10-14T02:11:04.637Z,13
2022-10-14T02:12:04.673Z,13.6429
2022-10-14T02:13:04.695Z,14.9286
2022-10-14T02:14:04.731Z,14.6429
2022-10-14T02:15:04.783Z,15.8571
2022-10-14T02:16:04.800Z,14.3571
2022-10-14T02:17:04.826Z,15.8571
2022-10-14T02:18:04.849Z,14.8571
2022-10-14T02:19:04.881Z,15.1429
2022-10-14T02:20:04.941Z,15.1429
2022-10-14T02:21:04.953Z,14.4286
2022-10-14T02:22:04.980Z,15
2022-10-14T02:23:05.034Z,15.4286
2022-10-14T02:24:05.094Z,13.9286
2022-10-14T02:25:05.109Z,14.4286
2022-10-14T02:26:05.143Z,15.4286
2022-10-14T02:27:05.194Z,15
2022-10-14T02:28:05.221Z,14.5
2022-10-14T02:29:05.250Z,14.4286
2022-10-14T02:30:05.277Z,14.2143
2022-10-14T02:31:05.334Z,14.5
2022-10-14T02:32:05.374Z,14.3571
2022-10-14T02:33:05.380Z,14.3571
2022-10-14T02:34:05.426Z,13.8571
2022-10-14T02:35:05.454Z,13.5
2022-10-14T02:36:05.508Z,14.9286
2022-10-14T02:37:05.518Z,13.9286
2022-10-14T02:38:05.551Z,14.7143
2022-10-14T02:39:05.603Z,14.9286
2022-10-14T02:40:05.632Z,14.2143
2022-10-14T02:41:05.673Z,14.3571
2022-10-14T02:42:05.679Z,15.2143
2022-10-14T02:43:05.718Z,15
2022-10-14T02:44:05.769Z,14.9286
2022-10-14T02:45:05.799Z,14.8571
2022-10-14T02:46:05.834Z,15.1429
2022-10-14T02:47:05.862Z,14.9286
2022-10-14T02:48:05.890Z,14.9286
2022-10-14T02:49:05.907Z,15.2143
2022-10-14T02:50:05.951Z,16.1429
2022-10-14T02:51:05.979Z,15.6429
2022-10-14T02:52:06.020Z,15
2022-10-14T02:53:06.068Z,14.7143
2022-10-14T02:54:06.080Z,16.3571
2022-10-14T02:55:06.103Z,15.2143
2022-10-14T02:56:06.135Z,15.2143
2022-10-14T02:57:06.182Z,15.4286
2022-10-14T02:58:06.193Z,15.7143
2022-10-14T02:59:06.218Z,15.1429
2022-10-14T03:00:06.260Z,15.3571
2022-10-14T03:01:06.288Z,15.7143
2022-10-14T03:02:06.370Z,16.7143
2022-10-14T03:03:06.345Z,16.1429
2022-10-14T03:04:06.375Z,15.9286
2022-10-14T03:05:06.430Z,16.6429
2022-10-14T03:06:06.454Z,14.9286
2022-10-14T03:07:06.472Z,15
2022-10-14T03:08:06.523Z,15.3571
2022-10-14T03:09:06.561Z,14.8571
2022-10-14T03:10:06.567Z,14.8571
2022-10-14T03:11:06.618Z,14.6429
2022-10-14T03:12:06.651Z,15.1429
2022-10-14T03:13:06.672Z,15.1429
2022-10-14T03:14:06.707Z,15.2143
2022-10-14T03:15:06.729Z,14.1429
2022-10-14T03:16:06.785Z,14.8571
2022-10-14T03:17:06.811Z,15
2022-10-14T03:18:06.834Z,14.3571
2022-10-14T03:19:06.871Z,14.5
2022-10-14T03:20:06.907Z,13.7143
2022-10-14T03:21:06.961Z,14.6429
2022-10-14T03:22:06.967Z,13.3571
2022-10-14T03:23:06.994Z,13.6429
2022-10-14T03:24:07.024Z,14
2022-10-14T03:25:07.053Z,14.1429
2022-10-14T03:26:09.585Z,14.5
2022-10-14T03:27:07.144Z,15.3571
2022-10-14T03:28:07.155Z,15.3571
2022-10-14T03:29:07.186Z,15.3571
2022-10-14T03:30:07.221Z,15.2143
2022-10-14T03:31:07.248Z,17.2143
2022-10-14T03:32:07.308Z,19.3571
2022-10-14T03:33:08.131Z,13.7143
2022-10-14T03:34:07.350Z,13.2143
2022-10-14T03:35:07.378Z,13.5
2022-10-14T03:36:07.406Z,13.5
2022-10-14T03:37:07.467Z,13.5
2022-10-14T03:38:07.482Z,14
2022-10-14T03:39:07.511Z,13.2143
2022-10-14T03:40:07.544Z,12.8571
2022-10-14T03:41:07.580Z,13.6429
2022-10-14T03:42:07.642Z,12.3571
2022-10-14T03:43:07.655Z,12.2143
2022-10-14T03:44:07.698Z,12.2143
2022-10-14T03:45:07.732Z,12.2143
2022-10-14T03:46:07.771Z,13.2143
2022-10-14T03:47:07.822Z,12.5
2022-10-14T03:48:07.836Z,12.4286
2022-10-14T03:49:07.867Z,12.4286
2022-10-14T03:50:07.906Z,13
2022-10-14T03:51:07.933Z,12.5
2022-10-14T03:52:07.982Z,13.4286
2022-10-14T03:53:08.007Z,13.3571
2022-10-14T03:54:08.038Z,14.2143
2022-10-14T03:55:08.071Z,13.8571
2022-10-14T03:56:08.096Z,14.5
2022-10-14T03:57:08.135Z,14
2022-10-14T03:58:08.169Z,12.9286
2022-10-14T03:59:08.191Z,12.8571
2022-10-14T04:00:08.239Z,13.6429
2022-10-14T04:01:08.287Z,13.7143
2022-10-14T04:02:08.397Z,13.3571
2022-10-14T04:03:08.346Z,13.9286
2022-10-14T04:04:08.361Z,13.8571
2022-10-14T04:05:08.399Z,13.3571
2022-10-14T04:06:08.462Z,14.3571
2022-10-14T04:07:08.486Z,13.1429
2022-10-14T04:08:08.493Z,13.4286
2022-10-14T04:09:08.529Z,13.9286
2022-10-14T04:10:08.560Z,14.3571
2022-10-14T04:11:08.610Z,14.3571
2022-10-14T04:12:08.620Z,13.7143
2022-10-14T04:13:08.650Z,13.8571
2022-10-14T04:14:08.681Z,13.9286
2022-10-14T04:15:08.710Z,13.8571
2022-10-14T04:16:08.764Z,14.3571
2022-10-14T04:17:08.779Z,13.9286
2022-10-14T04:18:08.811Z,13.4286
2022-10-14T04:19:08.848Z,13.4286
2022-10-14T04:20:08.888Z,13.5
2022-10-14T04:21:08.943Z,13.8571
2022-10-14T04:22:08.954Z,13.6429
2022-10-14T04:23:08.985Z,13.8571
2022-10-14T04:24:09.023Z,14.9286
2022-10-14T04:25:09.048Z,14.7143
2022-10-14T04:26:09.102Z,14.4286
2022-10-14T04:27:09.107Z,14.3571
2022-10-14T04:28:09.137Z,14.6429
2022-10-14T04:29:09.170Z,14.8571
2022-10-14T04:30:09.207Z,14.9286
2022-10-14T04:31:09.250Z,14.4286
2022-10-14T04:32:09.266Z,14.9286
2022-10-14T04:33:09.302Z,16.6429
2022-10-14T04:34:09.361Z,15.1429
2022-10-14T04:35:09.378Z,14.8571
2022-10-14T04:36:09.432Z,14.1429
2022-10-14T04:37:09.444Z,13.6429
2022-10-14T04:38:09.480Z,14.6429
2022-10-14T04:39:09.519Z,14
2022-10-14T04:40:09.547Z,13.5
2022-10-14T04:41:09.608Z,13.6429
2022-10-14T04:42:09.617Z,15.3571
2022-10-14T04:43:09.652Z,13.6429
2022-10-14T04:44:09.684Z,13.3571
2022-10-14T04:45:09.720Z,13.2143
2022-10-14T04:46:09.781Z,14
2022-10-14T04:47:09.787Z,13.1429
2022-10-14T04:48:09.822Z,13.7143
2022-10-14T04:49:09.860Z,13.8571
2022-10-14T04:50:09.890Z,13.5
2022-10-14T04:51:09.939Z,14.4286
2022-10-14T04:52:09.959Z,13.2143
2022-10-14T04:53:13.446Z,13.6429
2022-10-14T04:54:10.030Z,13.7143
2022-10-14T04:55:10.060Z,13.8571
2022-10-14T04:56:10.116Z,14.1429
2022-10-14T04:57:10.148Z,14.6429
2022-10-14T04:58:10.180Z,14.8571
2022-10-14T04:59:10.192Z,15.1429
2022-10-14T05:00:10.234Z,14.9286
2022-10-14T05:01:10.245Z,14.2143
2022-10-14T05:02:10.332Z,13.5
2022-10-14T05:03:10.317Z,14.5
2022-10-14T05:04:10.330Z,13
2022-10-14T05:05:10.362Z,14
2022-10-14T05:06:10.413Z,14
2022-10-14T05:07:10.426Z,14
2022-10-14T05:08:10.455Z,13.7143
2022-10-14T05:09:10.513Z,14.7143
2022-10-14T05:10:10.523Z,14.4286
2022-10-14T05:11:10.550Z,14.3571
2022-10-14T05:12:10.572Z,14
2022-10-14T05:13:10.630Z,14.3571
2022-10-14T05:14:10.644Z,13
2022-10-14T05:15:10.680Z,13.6429
2022-10-14T05:16:10.719Z,15.2143
2022-10-14T05:17:10.760Z,14.7143
2022-10-14T05:18:10.809Z,13.8571
2022-10-14T05:19:10.825Z,14.6429
2022-10-14T05:20:10.878Z,14.2143
2022-10-14T05:21:10.893Z,14.6429
2022-10-14T05:22:10.924Z,15.1429
2022-10-14T05:23:10.958Z,14.7143
2022-10-14T05:24:11.017Z,15.1429
2022-10-14T05:25:11.033Z,14.7143
2022-10-14T05:26:11.062Z,15
2022-10-14T05:27:11.094Z,15.2143
2022-10-14T05:28:11.126Z,14.6429
2022-10-14T05:29:11.173Z,14.6429
2022-10-14T05:30:11.205Z,14.5
2022-10-14T05:31:11.222Z,14.7143
2022-10-14T05:32:11.265Z,14.7143
2022-10-14T05:33:11.297Z,14.2143
2022-10-14T05:34:11.329Z,14.1429
2022-10-14T05:35:11.379Z,14.9286
2022-10-14T05:36:11.392Z,14.2143
2022-10-14T05:37:11.419Z,14.7143
2022-10-14T05:38:11.482Z,14.8571
2022-10-14T05:39:11.492Z,15.4286
2022-10-14T05:40:11.543Z,14.8571
2022-10-14T05:41:11.577Z,15
2022-10-14T05:42:11.590Z,14.2143
2022-10-14T05:43:11.622Z,14
2022-10-14T05:44:11.655Z,14.6429
2022-10-14T05:45:11.681Z,13.4286
2022-10-14T05:46:11.738Z,14.9286
2022-10-14T05:47:11.752Z,14.7143
2022-10-14T05:48:11.798Z,14.3571
2022-10-14T05:49:11.817Z,15.3571
2022-10-14T05:50:11.847Z,15.7143
2022-10-14T05:51:11.891Z,14.7143
2022-10-14T05:52:11.902Z,15
2022-10-14T05:53:11.940Z,14.4286
2022-10-14T05:54:11.969Z,14.9286
2022-10-14T05:55:12.008Z,15.3571
2022-10-14T05:56:12.046Z,13.9286
2022-10-14T05:57:12.075Z,13.9286
2022-10-14T05:58:12.106Z,16
2022-10-14T05:59:12.137Z,16.3571
2022-10-14T06:00:12.186Z,15
2022-10-14T06:01:12.204Z,14.4286
2022-10-14T06:02:12.221Z,14.8571
2022-10-14T06:03:12.298Z,13.5
2022-10-14T06:04:12.281Z,14.7143
2022-10-14T06:05:12.322Z,14
2022-10-14T06:06:12.376Z,14.8571
2022-10-14T06:07:12.393Z,14.4286
2022-10-14T06:08:12.426Z,14.1429
2022-10-14T06:09:12.467Z,14.2143
2022-10-14T06:10:12.513Z,14.5
2022-10-14T06:11:12.544Z,14.1429
2022-10-14T06:12:12.561Z,14.7143
2022-10-14T06:13:12.582Z,14.5
2022-10-14T06:14:12.608Z,15.3571
2022-10-14T06:15:12.647Z,15.4286
2022-10-14T06:16:12.704Z,14.6429
2022-10-14T06:17:12.716Z,15
2022-10-14T06:18:12.754Z,16.1429
2022-10-14T06:19:12.787Z,14.8571
2022-10-14T06:20:12.823Z,15.3571
2022-10-14T06:21:12.870Z,15.7143
2022-10-14T06:22:12.876Z,15.3571
2022-10-14T06:23:12.914Z,16.8571
2022-10-14T06:24:12.939Z,16.2143
2022-10-14T06:25:12.974Z,15.8571
2022-10-14T06:26:13.023Z,15.7143
2022-10-14T06:27:13.025Z,15.1429
2022-10-14T06:28:13.061Z,15.2143
2022-10-14T06:29:13.086Z,15.8571
2022-10-14T06:30:13.114Z,15.2143
2022-10-14T06:31:13.175Z,16
2022-10-14T06:32:13.183Z,15
2022-10-14T06:33:13.228Z,15.9286
2022-10-14T06:34:13.263Z,14.4286
2022-10-14T06:35:13.278Z,15.8571
2022-10-14T06:36:13.311Z,16
2022-10-14T06:37:13.343Z,16.4286
2022-10-14T06:38:13.372Z,15.6429
2022-10-14T06:39:13.423Z,15.8571
2022-10-14T06:40:13.435Z,17.2143
2022-10-14T06:41:13.491Z,17.8571
2022-10-14T06:42:13.508Z,16.3571
2022-10-14T06:43:13.537Z,17.1429
2022-10-14T06:44:13.572Z,18.5
2022-10-14T06:45:13.605Z,18.6429
2022-10-14T06:46:13.650Z,18.6429
2022-10-14T06:47:13.664Z,19.4286
2022-10-14T06:48:13.699Z,19.9286
2022-10-14T06:49:13.739Z,19.9286
2022-10-14T06:50:13.771Z,18.6429
2022-10-14T06:51:13.823Z,17.4286
2022-10-14T06:52:13.841Z,18.4286
2022-10-14T06:53:13.874Z,18
2022-10-14T06:54:13.904Z,19
2022-10-14T06:55:13.960Z,17.4286
2022-10-14T06:56:13.965Z,16.4286
2022-10-14T06:57:13.988Z,16.6429
2022-10-14T06:58:14.023Z,16.2143
2022-10-14T06:59:14.051Z,18.3571
2022-10-14T07:00:14.106Z,16.5
2022-10-14T07:01:14.182Z,16.8571
2022-10-14T07:02:14.148Z,17
2022-10-14T07:03:14.171Z,16.8571
2022-10-14T07:04:14.204Z,16.7143
2022-10-14T07:05:14.251Z,15.6429
2022-10-14T07:06:14.282Z,15.5
2022-10-14T07:07:14.284Z,16.2143
2022-10-14T07:08:15.582Z,17.4286
2022-10-14T07:09:14.348Z,16.1429
2022-10-14T07:10:14.375Z,16.6429
2022-10-14T07:11:14.431Z,15.9286
2022-10-14T07:12:14.435Z,16.3571
2022-10-14T07:13:14.454Z,16.7143
2022-10-14T07:14:14.492Z,16.3571
2022-10-14T07:15:14.556Z,17
2022-10-14T07:16:14.550Z,17.1429
2022-10-14T07:17:14.584Z,17.2143
2022-10-14T07:18:14.622Z,16.2143
2022-10-14T07:19:14.650Z,17.1429
2022-10-14T07:20:14.695Z,18.7143
2022-10-14T07:21:14.710Z,16.5
2022-10-14T07:22:14.760Z,17
2022-10-14T07:23:14.769Z,17.9286
2022-10-14T07:24:14.795Z,18.3571
2022-10-14T07:25:14.832Z,17.9286
2022-10-14T07:26:14.887Z,17.1429
2022-10-14T07:27:14.899Z,16.7143
2022-10-14T07:28:15.013Z,17.3571
2022-10-14T07:29:14.963Z,17.3571
2022-10-14T07:30:17.468Z,17.3571
2022-10-14T07:31:15.029Z,17.8571
2022-10-14T07:32:15.051Z,17.2143
2022-10-14T07:33:15.083Z,17.7143
2022-10-14T07:34:15.113Z,17.1429
2022-10-14T07:35:15.157Z,16.7143
2022-10-14T07:36:18.409Z,16.9286
2022-10-14T07:37:15.238Z,17
2022-10-14T07:38:15.235Z,16.3571
2022-10-14T07:39:15.266Z,17
2022-10-14T07:40:15.291Z,17.9286
2022-10-14T07:41:15.340Z,17
2022-10-14T07:42:15.478Z,17.1429
2022-10-14T07:43:15.387Z,17.6429
2022-10-14T07:44:15.414Z,18.4286
2022-10-14T07:45:15.448Z,18.6429
2022-10-14T07:46:15.499Z,18.8571
2022-10-14T07:47:15.513Z,17.2143
2022-10-14T07:48:19.699Z,18
2022-10-14T07:49:15.572Z,18.5
2022-10-14T07:50:15.605Z,18.3571
2022-10-14T07:51:15.658Z,19.5
2022-10-14T07:52:15.668Z,18.7143
2022-10-14T07:53:15.703Z,17.9286
2022-10-14T07:54:15.730Z,18.7143
2022-10-14T07:55:15.764Z,18.1429
2022-10-14T07:56:15.815Z,18
2022-10-14T07:57:15.822Z,18.9286
2022-10-14T07:58:15.860Z,18.6429
2022-10-14T07:59:15.887Z,18.7143
2022-10-14T08:00:15.923Z,18
2022-10-14T08:01:16.037Z,18.3571
2022-10-14T08:02:15.986Z,18
2022-10-14T08:03:16.024Z,17.9286
2022-10-14T08:04:16.056Z,18
2022-10-14T08:05:36.994Z,18.1429
2022-10-14T08:06:16.147Z,17.9286
2022-10-14T08:07:16.161Z,17.9286
2022-10-14T08:08:16.190Z,18.6429
2022-10-14T08:09:16.282Z,18.5
2022-10-14T08:10:16.249Z,18.8571
2022-10-14T08:11:16.303Z,18.5
2022-10-14T08:12:16.320Z,18.5
2022-10-14T08:13:16.353Z,17.9286
2022-10-14T08:14:16.389Z,19
2022-10-14T08:15:16.421Z,19
2022-10-14T08:16:16.469Z,18.3571
2022-10-14T08:17:16.488Z,18.2143
2022-10-14T08:18:16.518Z,19.1429
2022-10-14T08:19:16.552Z,18.8571
2022-10-14T08:20:16.706Z,18.4286
2022-10-14T08:21:16.647Z,18.2143
2022-10-14T08:22:16.654Z,18.2143
2022-10-14T08:23:19.075Z,18.1429
2022-10-14T08:24:16.712Z,19
2022-10-14T08:25:16.751Z,18.9286
2022-10-14T08:26:16.807Z,19.4286
2022-10-14T08:27:16.818Z,19.2143
2022-10-14T08:28:16.918Z,18
2022-10-14T08:29:16.903Z,19.2143
2022-10-14T08:30:16.909Z,18.2143
2022-10-14T08:31:16.977Z,18.9286
2022-10-14T08:32:17.005Z,19
2022-10-14T08:33:17.024Z,19
2022-10-14T08:34:17.046Z,18.8571
2022-10-14T08:35:17.084Z,18.2143
2022-10-14T08:36:17.118Z,18.4286
2022-10-14T08:37:17.133Z,18.5
2022-10-14T08:38:17.167Z,20.6429
2022-10-14T08:39:17.250Z,21.3571
2022-10-14T08:40:17.249Z,22.1429
2022-10-14T08:41:17.261Z,20.1429
2022-10-14T08:42:17.300Z,20.2143
2022-10-14T08:43:17.334Z,19.9286
2022-10-14T08:44:17.385Z,19.2143
2022-10-14T08:45:17.398Z,19.9286
2022-10-14T08:46:17.430Z,19
2022-10-14T08:47:17.474Z,18.8571
2022-10-14T08:48:17.484Z,19.3571
2022-10-14T08:49:17.542Z,18.8571
2022-10-14T08:50:17.552Z,19
2022-10-14T08:51:17.599Z,19.5
2022-10-14T08:52:17.614Z,19.3571
2022-10-14T08:53:17.643Z,18.3571
2022-10-14T08:54:17.674Z,18.5
2022-10-14T08:55:17.699Z,18.6429
2022-10-14T08:56:17.752Z,19.1429
2022-10-14T08:57:17.765Z,19.3571
2022-10-14T08:58:17.897Z,19
2022-10-14T08:59:17.822Z,18.9286
2022-10-14T09:00:17.863Z,18.9286
2022-10-14T09:01:17.915Z,19.8571
2022-10-14T09:02:17.943Z,17.9286
2022-10-14T09:03:17.965Z,19.1429
2022-10-14T09:04:18.036Z,18.1429
2022-10-14T09:05:18.047Z,19.4286
2022-10-14T09:06:18.064Z,17.4286
2022-10-14T09:07:18.095Z,17.5
2022-10-14T09:08:18.145Z,18.1429
2022-10-14T09:09:18.175Z,17.5
2022-10-14T09:10:18.186Z,18.6429
2022-10-14T09:11:18.213Z,18.5
2022-10-14T09:12:18.273Z,18.5
2022-10-14T09:13:18.280Z,18.2143
2022-10-14T09:14:18.318Z,18.4286
2022-10-14T09:15:18.356Z,18.1429
2022-10-14T09:16:18.394Z,19.5
2022-10-14T09:17:18.442Z,18.4286
2022-10-14T09:18:18.455Z,18.2143
2022-10-14T09:19:18.490Z,18.1429
2022-10-14T09:20:18.546Z,18.3571
2022-10-14T09:21:27.671Z,17.1429
2022-10-14T09:22:18.589Z,17.8571
2022-10-14T09:23:18.615Z,17.5
2022-10-14T09:24:18.651Z,16.9286
2022-10-14T09:25:18.704Z,17.1429
2022-10-14T09:26:18.706Z,16.9286
2022-10-14T09:27:18.942Z,16.7143
2022-10-14T09:28:18.820Z,17.1429
2022-10-14T09:29:18.807Z,16.2143
2022-10-14T09:30:18.940Z,17.6429
2022-10-14T09:31:18.850Z,18
2022-10-14T09:32:19.112Z,17.2143
2022-10-14T09:33:18.912Z,17.2143
2022-10-14T09:34:20.276Z,17.1429
2022-10-14T09:35:19.001Z,16.9286
2022-10-14T09:36:19.016Z,16.4286
2022-10-14T09:37:19.534Z,16
2022-10-14T09:38:19.069Z,17
2022-10-14T09:39:19.099Z,17.3571
2022-10-14T09:40:19.302Z,16.1429
2022-10-14T09:41:19.166Z,15.5
2022-10-14T09:42:19.199Z,15.8571
2022-10-14T09:43:19.231Z,15.5
2022-10-14T09:44:19.256Z,15.7143
2022-10-14T09:45:19.308Z,15.9286
2022-10-14T09:46:19.324Z,15.7143
2022-10-14T09:47:19.357Z,15.6429
2022-10-14T09:48:19.410Z,15.3571
2022-10-14T09:49:19.423Z,16.5
2022-10-14T09:50:19.459Z,15.8571
2022-10-14T09:51:19.504Z,15.4286
2022-10-14T09:52:19.515Z,15.2143
2022-10-14T09:53:19.552Z,15.1429
2022-10-14T09:54:19.584Z,15.7143
2022-10-14T09:55:19.621Z,16
2022-10-14T09:56:20.830Z,15.8571
2022-10-14T09:57:19.978Z,15.5
2022-10-14T09:58:19.720Z,15.7143
2022-10-14T09:59:19.754Z,15.9286
2022-10-14T10:00:19.823Z,15.7143
2022-10-14T10:01:19.820Z,16.7143
2022-10-14T10:02:19.853Z,16.8571
2022-10-14T10:03:19.891Z,14.9286
2022-10-14T10:04:19.917Z,15.1429
2022-10-14T10:05:19.969Z,16.1429
2022-10-14T10:06:20.002Z,15.5
2022-10-14T10:07:20.355Z,15.5
2022-10-14T10:08:20.041Z,16.7143
2022-10-14T10:09:20.082Z,16.2143
2022-10-14T10:10:20.107Z,14.8571
2022-10-14T10:11:20.152Z,15.8571
2022-10-14T10:12:20.166Z,17
2022-10-14T10:13:20.205Z,17.1429
2022-10-14T10:14:20.219Z,17.7143
2022-10-14T10:15:20.255Z,18.4286
2022-10-14T10:16:20.305Z,16.6429
2022-10-14T10:17:20.710Z,16.3571
2022-10-14T10:18:20.376Z,17.3571
2022-10-14T10:19:20.418Z,17.7143
2022-10-14T10:20:20.447Z,16.9286
2022-10-14T10:21:20.496Z,17.4286
2022-10-14T10:22:20.572Z,17.4286
2022-10-14T10:23:20.568Z,17.6429
2022-10-14T10:24:20.576Z,17.8571
2022-10-14T10:25:20.615Z,17.5
2022-10-14T10:26:20.674Z,17.6429
2022-10-14T10:27:20.972Z,16.9286
2022-10-14T10:28:20.774Z,17.2143
2022-10-14T10:29:20.744Z,17.8571
2022-10-14T10:30:20.766Z,18.4286
2022-10-14T10:31:20.917Z,17.5
2022-10-14T10:32:21.098Z,18.4286
2022-10-14T10:33:20.882Z,17
2022-10-14T10:34:20.906Z,17.4286
2022-10-14T10:35:20.954Z,16.9286
2022-10-14T10:36:21.167Z,17.6429
2022-10-14T10:37:21.256Z,17.5
2022-10-14T10:38:21.007Z,18.7143
2022-10-14T10:39:21.042Z,18.5
2022-10-14T10:40:21.095Z,17.8571
2022-10-14T10:41:21.117Z,16.9286
2022-10-14T10:42:21.685Z,16.6429
2022-10-14T10:43:21.167Z,15.9286
2022-10-14T10:44:21.201Z,17.2143
2022-10-14T10:45:21.234Z,16.4286
2022-10-14T10:46:21.259Z,16.5
2022-10-14T10:47:21.308Z,17.1429
2022-10-14T10:48:21.324Z,16.9286
2022-10-14T10:49:21.356Z,15.8571
2022-10-14T10:50:21.388Z,16.6429
2022-10-14T10:51:21.436Z,16.7143
2022-10-14T10:52:21.825Z,17.8571
2022-10-14T10:53:21.474Z,17.1429
2022-10-14T10:54:21.516Z,16.4286
2022-10-14T10:55:21.546Z,16.8571
2022-10-14T10:56:21.595Z,17.1429
2022-10-14T10:57:21.803Z,17.3571
2022-10-14T10:58:21.658Z,17.5
2022-10-14T10:59:21.681Z,17.7143
2022-10-14T11:00:21.790Z,16.2143
2022-10-14T11:01:21.785Z,16.1429
2022-10-14T11:02:22.010Z,16
2022-10-14T11:03:21.790Z,16.1429
2022-10-14T11:04:21.823Z,16.1429
2022-10-14T11:05:21.886Z,15.8571
2022-10-14T11:06:21.881Z,16.2143
2022-10-14T11:07:25.448Z,15.8571
2022-10-14T11:08:21.968Z,15.8571
2022-10-14T11:09:21.970Z,15.1429
2022-10-14T11:10:22.030Z,16.5
2022-10-14T11:11:22.036Z,15.6429
2022-10-14T11:12:22.341Z,15.5
2022-10-14T11:13:22.094Z,16.4286
2022-10-14T11:14:22.117Z,17.1429
2022-10-14T11:15:22.150Z,15.9286
2022-10-14T11:16:22.208Z,16.9286
2022-10-14T11:17:22.648Z,16.2143
2022-10-14T11:18:22.247Z,15.7143
2022-10-14T11:19:22.281Z,15.7143
2022-10-14T11:20:22.312Z,16.7143
2022-10-14T11:21:22.366Z,15.8571
2022-10-14T11:22:22.683Z,16.1429
2022-10-14T11:23:22.408Z,16.2143
2022-10-14T11:24:22.449Z,16.6429
2022-10-14T11:25:22.474Z,14.9286
2022-10-14T11:26:22.573Z,14.6429
2022-10-14T11:27:24.764Z,12.8571
2022-10-14T11:28:22.627Z,12.1429
2022-10-14T11:29:22.596Z,13.4286
2022-10-14T11:30:22.621Z,16.4286
2022-10-14T11:31:22.676Z,15.9286
2022-10-14T11:32:22.694Z,12.4286
2022-10-14T11:33:22.728Z,12.3571
2022-10-14T11:34:22.762Z,12.6429
2022-10-14T11:35:22.835Z,11.6429
2022-10-14T11:36:22.832Z,11.6429
2022-10-14T11:37:22.991Z,12.4286
2022-10-14T11:38:22.908Z,11.7143
2022-10-14T11:39:22.910Z,12.7143
2022-10-14T11:40:22.955Z,11.9286
2022-10-14T11:41:23.003Z,12.2143
2022-10-14T11:42:23.339Z,11.9286
2022-10-14T11:43:23.031Z,12.7143
2022-10-14T11:44:23.103Z,11.9286
2022-10-14T11:45:23.111Z,12.3571
2022-10-14T11:46:23.123Z,13.5
2022-10-14T11:47:23.529Z,12.5
2022-10-14T11:48:23.203Z,12.2143
2022-10-14T11:49:23.233Z,12.6429
2022-10-14T11:50:23.288Z,12.5
2022-10-14T11:51:23.291Z,12.2143
2022-10-14T11:52:23.339Z,13.8571
2022-10-14T11:53:23.346Z,12.9286
2022-10-14T11:54:23.380Z,13.7143
2022-10-14T11:55:23.416Z,13.4286
2022-10-14T11:56:23.448Z,13.8571
2022-10-14T11:57:23.832Z,13.2143
2022-10-14T11:58:23.499Z,13.1429
2022-10-14T11:59:23.527Z,12.8571
2022-10-14T12:00:23.629Z,13.2143
2022-10-14T12:01:23.592Z,12.9286
2022-10-14T12:02:24.060Z,12.5
2022-10-14T12:03:23.654Z,11.5
2022-10-14T12:04:23.690Z,12.7143
2022-10-14T12:05:23.724Z,12.6429
2022-10-14T12:06:23.751Z,12.5
2022-10-14T12:07:23.809Z,12.8571
2022-10-14T12:08:23.817Z,13.8571
2022-10-14T12:09:23.888Z,13.8571
2022-10-14T12:10:23.886Z,12.8571
2022-10-14T12:11:23.936Z,13.5
2022-10-14T12:12:24.316Z,13.4286
2022-10-14T12:13:23.994Z,13.6429
2022-10-14T12:14:24.001Z,13.6429
2022-10-14T12:15:24.122Z,13.2143
2022-10-14T12:16:24.084Z,13.5
2022-10-14T12:17:24.473Z,13.8571
2022-10-14T12:18:24.187Z,13.8571
2022-10-14T12:19:24.158Z,13
2022-10-14T12:20:24.215Z,12.9286
2022-10-14T12:21:24.230Z,13.5
2022-10-14T12:22:24.797Z,13.3571
2022-10-14T12:23:24.294Z,13.6429